sensor_id;sensor_type;location;lat;lon;timestamp;P1;durP1;ratioP1;P2;durP2;ratioP2
19816;SDS011;68323;49.394;8.434;2024-03-22T00:01:26;13.33;;;8.20;;
19816;SDS011;68323;49.394;8.434;2024-03-22T00:03:52;11.43;;;8.27;;
19816;SDS011;68323;49.394;8.434;2024-03-22T00:06:18;10.97;;;8.27;;
19816;SDS011;68323;49.394;8.434;2024-03-22T00:08:44;12.30;;;8.07;;
19816;SDS011;68323;49.394;8.434;2024-03-22T00:11:10;12.07;;;8.00;;
19816;SDS011;68323;49.394;8.434;2024-03-22T00:13:36;14.10;;;7.43;;
19816;SDS011;68323;49.394;8.434;2024-03-22T00:16:02;13.03;;;8.13;;
19816;SDS011;68323;49.394;8.434;2024-03-22T00:18:28;11.53;;;7.87;;
19816;SDS011;68323;49.394;8.434;2024-03-22T00:20:54;11.97;;;8.10;;
19816;SDS011;68323;49.394;8.434;2024-03-22T00:23:20;12.73;;;8.13;;
19816;SDS011;68323;49.394;8.434;2024-03-22T00:25:46;15.23;;;7.90;;
19816;SDS011;68323;49.394;8.434;2024-03-22T00:28:12;11.87;;;8.47;;
19816;SDS011;68323;49.394;8.434;2024-03-22T00:30:38;12.00;;;8.30;;
19816;SDS011;68323;49.394;8.434;2024-03-22T00:33:04;14.93;;;8.47;;
19816;SDS011;68323;49.394;8.434;2024-03-22T00:35:30;12.70;;;8.07;;
19816;SDS011;68323;49.394;8.434;2024-03-22T00:37:56;12.30;;;8.60;;
19816;SDS011;68323;49.394;8.434;2024-03-22T00:40:22;14.37;;;9.37;;
19816;SDS011;68323;49.394;8.434;2024-03-22T00:42:48;16.60;;;8.53;;
19816;SDS011;68323;49.394;8.434;2024-03-22T00:45:15;11.60;;;8.63;;
19816;SDS011;68323;49.394;8.434;2024-03-22T00:47:41;15.47;;;8.90;;
19816;SDS011;68323;49.394;8.434;2024-03-22T00:50:07;13.50;;;9.50;;
19816;SDS011;68323;49.394;8.434;2024-03-22T00:52:33;16.40;;;10.00;;
19816;SDS011;68323;49.394;8.434;2024-03-22T00:54:59;22.60;;;12.10;;
19816;SDS011;68323;49.394;8.434;2024-03-22T00:57:25;29.80;;;15.00;;
19816;SDS011;68323;49.394;8.434;2024-03-22T00:59:51;35.80;;;17.70;;
19816;SDS011;68323;49.394;8.434;2024-03-22T01:02:17;39.03;;;19.40;;
19816;SDS011;68323;49.394;8.434;2024-03-22T01:04:43;37.87;;;18.83;;
19816;SDS011;68323;49.394;8.434;2024-03-22T01:07:09;38.73;;;18.63;;
19816;SDS011;68323;49.394;8.434;2024-03-22T01:09:35;34.03;;;17.00;;
19816;SDS011;68323;49.394;8.434;2024-03-22T01:12:01;32.57;;;17.53;;
19816;SDS011;68323;49.394;8.434;2024-03-22T01:14:27;38.07;;;19.30;;
19816;SDS011;68323;49.394;8.434;2024-03-22T01:16:53;36.63;;;19.00;;
19816;SDS011;68323;49.394;8.434;2024-03-22T01:19:20;29.53;;;17.17;;
19816;SDS011;68323;49.394;8.434;2024-03-22T01:21:46;30.37;;;17.97;;
19816;SDS011;68323;49.394;8.434;2024-03-22T01:24:12;28.90;;;17.07;;
19816;SDS011;68323;49.394;8.434;2024-03-22T01:26:38;28.93;;;17.00;;
19816;SDS011;68323;49.394;8.434;2024-03-22T01:29:04;26.70;;;16.97;;
19816;SDS011;68323;49.394;8.434;2024-03-22T01:31:30;26.17;;;17.07;;
19816;SDS011;68323;49.394;8.434;2024-03-22T01:33:56;24.33;;;15.13;;
19816;SDS011;68323;49.394;8.434;2024-03-22T01:36:22;20.40;;;13.10;;
19816;SDS011;68323;49.394;8.434;2024-03-22T01:38:47;19.03;;;12.13;;
19816;SDS011;68323;49.394;8.434;2024-03-22T01:41:13;16.73;;;12.03;;
19816;SDS011;68323;49.394;8.434;2024-03-22T01:43:39;19.27;;;11.77;;
19816;SDS011;68323;49.394;8.434;2024-03-22T01:46:05;24.00;;;11.77;;
19816;SDS011;68323;49.394;8.434;2024-03-22T01:48:33;17.07;;;10.87;;
19816;SDS011;68323;49.394;8.434;2024-03-22T01:51:00;18.50;;;11.20;;
19816;SDS011;68323;49.394;8.434;2024-03-22T01:53:26;17.20;;;11.80;;
19816;SDS011;68323;49.394;8.434;2024-03-22T01:55:52;18.20;;;12.20;;
19816;SDS011;68323;49.394;8.434;2024-03-22T01:58:18;19.60;;;11.50;;
19816;SDS011;68323;49.394;8.434;2024-03-22T02:00:44;19.70;;;11.47;;
19816;SDS011;68323;49.394;8.434;2024-03-22T02:03:10;20.47;;;12.20;;
19816;SDS011;68323;49.394;8.434;2024-03-22T02:05:36;20.87;;;11.57;;
19816;SDS011;68323;49.394;8.434;2024-03-22T02:08:02;19.87;;;11.93;;
19816;SDS011;68323;49.394;8.434;2024-03-22T02:10:28;18.00;;;10.80;;
19816;SDS011;68323;49.394;8.434;2024-03-22T02:12:54;17.03;;;10.70;;
19816;SDS011;68323;49.394;8.434;2024-03-22T02:15:20;14.73;;;10.00;;
19816;SDS011;68323;49.394;8.434;2024-03-22T02:17:46;16.40;;;10.13;;
19816;SDS011;68323;49.394;8.434;2024-03-22T02:20:12;17.23;;;10.67;;
19816;SDS011;68323;49.394;8.434;2024-03-22T02:22:38;20.00;;;10.93;;
19816;SDS011;68323;49.394;8.434;2024-03-22T02:25:04;16.63;;;10.60;;
19816;SDS011;68323;49.394;8.434;2024-03-22T02:27:32;19.23;;;11.30;;
19816;SDS011;68323;49.394;8.434;2024-03-22T02:29:58;22.07;;;12.47;;
19816;SDS011;68323;49.394;8.434;2024-03-22T02:32:24;22.63;;;12.27;;
19816;SDS011;68323;49.394;8.434;2024-03-22T02:34:50;22.17;;;12.23;;
19816;SDS011;68323;49.394;8.434;2024-03-22T02:37:16;22.77;;;12.00;;
19816;SDS011;68323;49.394;8.434;2024-03-22T02:39:42;18.43;;;11.77;;
19816;SDS011;68323;49.394;8.434;2024-03-22T02:42:08;18.77;;;11.87;;
19816;SDS011;68323;49.394;8.434;2024-03-22T02:44:34;19.80;;;12.50;;
19816;SDS011;68323;49.394;8.434;2024-03-22T02:47:03;21.63;;;13.60;;
19816;SDS011;68323;49.394;8.434;2024-03-22T02:49:29;23.73;;;14.87;;
19816;SDS011;68323;49.394;8.434;2024-03-22T02:51:55;25.80;;;14.60;;
19816;SDS011;68323;49.394;8.434;2024-03-22T02:54:21;25.77;;;15.10;;
19816;SDS011;68323;49.394;8.434;2024-03-22T02:56:47;22.27;;;14.33;;
19816;SDS011;68323;49.394;8.434;2024-03-22T02:59:13;24.40;;;13.23;;
19816;SDS011;68323;49.394;8.434;2024-03-22T03:01:38;20.10;;;12.43;;
19816;SDS011;68323;49.394;8.434;2024-03-22T03:04:04;24.90;;;12.87;;
19816;SDS011;68323;49.394;8.434;2024-03-22T03:06:30;20.47;;;12.83;;
19816;SDS011;68323;49.394;8.434;2024-03-22T03:08:56;19.43;;;12.23;;
19816;SDS011;68323;49.394;8.434;2024-03-22T03:11:22;22.07;;;12.17;;
19816;SDS011;68323;49.394;8.434;2024-03-22T03:13:48;21.47;;;12.07;;
19816;SDS011;68323;49.394;8.434;2024-03-22T03:16:14;22.00;;;12.10;;
19816;SDS011;68323;49.394;8.434;2024-03-22T03:18:40;18.70;;;12.20;;
19816;SDS011;68323;49.394;8.434;2024-03-22T03:21:06;19.13;;;12.73;;
19816;SDS011;68323;49.394;8.434;2024-03-22T03:23:33;21.27;;;12.23;;
19816;SDS011;68323;49.394;8.434;2024-03-22T03:25:59;17.33;;;12.03;;
19816;SDS011;68323;49.394;8.434;2024-03-22T03:28:24;18.23;;;11.47;;
19816;SDS011;68323;49.394;8.434;2024-03-22T03:30:52;18.27;;;12.37;;
19816;SDS011;68323;49.394;8.434;2024-03-22T03:33:18;19.87;;;13.07;;
19816;SDS011;68323;49.394;8.434;2024-03-22T03:35:46;21.20;;;13.43;;
19816;SDS011;68323;49.394;8.434;2024-03-22T03:38:13;20.07;;;12.77;;
19816;SDS011;68323;49.394;8.434;2024-03-22T03:40:39;19.17;;;13.00;;
19816;SDS011;68323;49.394;8.434;2024-03-22T03:43:05;19.63;;;13.03;;
19816;SDS011;68323;49.394;8.434;2024-03-22T03:45:30;21.50;;;12.80;;
19816;SDS011;68323;49.394;8.434;2024-03-22T03:47:56;22.13;;;13.07;;
19816;SDS011;68323;49.394;8.434;2024-03-22T03:50:22;20.73;;;12.80;;
19816;SDS011;68323;49.394;8.434;2024-03-22T03:52:48;19.77;;;12.13;;
19816;SDS011;68323;49.394;8.434;2024-03-22T03:55:15;22.50;;;12.57;;
19816;SDS011;68323;49.394;8.434;2024-03-22T03:57:41;21.13;;;12.73;;
19816;SDS011;68323;49.394;8.434;2024-03-22T04:00:07;22.07;;;13.03;;
19816;SDS011;68323;49.394;8.434;2024-03-22T04:02:33;23.20;;;13.40;;
19816;SDS011;68323;49.394;8.434;2024-03-22T04:04:59;19.97;;;12.60;;
19816;SDS011;68323;49.394;8.434;2024-03-22T04:07:25;20.30;;;13.20;;
19816;SDS011;68323;49.394;8.434;2024-03-22T04:09:51;22.63;;;13.60;;
19816;SDS011;68323;49.394;8.434;2024-03-22T04:12:17;23.97;;;13.60;;
19816;SDS011;68323;49.394;8.434;2024-03-22T04:14:43;20.63;;;13.43;;
19816;SDS011;68323;49.394;8.434;2024-03-22T04:17:09;19.30;;;13.27;;
19816;SDS011;68323;49.394;8.434;2024-03-22T04:19:35;20.20;;;13.47;;
19816;SDS011;68323;49.394;8.434;2024-03-22T04:22:01;19.57;;;12.70;;
19816;SDS011;68323;49.394;8.434;2024-03-22T04:24:27;19.20;;;13.13;;
19816;SDS011;68323;49.394;8.434;2024-03-22T04:26:53;21.07;;;13.07;;
19816;SDS011;68323;49.394;8.434;2024-03-22T04:29:19;20.20;;;13.07;;
19816;SDS011;68323;49.394;8.434;2024-03-22T04:31:45;19.50;;;13.00;;
19816;SDS011;68323;49.394;8.434;2024-03-22T04:34:11;22.33;;;13.03;;
19816;SDS011;68323;49.394;8.434;2024-03-22T04:36:37;19.13;;;12.97;;
19816;SDS011;68323;49.394;8.434;2024-03-22T04:39:03;22.53;;;12.80;;
19816;SDS011;68323;49.394;8.434;2024-03-22T04:41:28;21.40;;;12.97;;
19816;SDS011;68323;49.394;8.434;2024-03-22T04:43:54;19.50;;;12.97;;
19816;SDS011;68323;49.394;8.434;2024-03-22T04:46:20;23.30;;;13.97;;
19816;SDS011;68323;49.394;8.434;2024-03-22T04:48:46;20.70;;;12.70;;
19816;SDS011;68323;49.394;8.434;2024-03-22T04:51:12;21.50;;;12.60;;
19816;SDS011;68323;49.394;8.434;2024-03-22T04:53:38;19.37;;;12.90;;
19816;SDS011;68323;49.394;8.434;2024-03-22T04:56:04;20.07;;;13.07;;
19816;SDS011;68323;49.394;8.434;2024-03-22T04:58:30;20.67;;;12.83;;
19816;SDS011;68323;49.394;8.434;2024-03-22T05:00:57;19.60;;;13.07;;
19816;SDS011;68323;49.394;8.434;2024-03-22T05:03:23;21.13;;;13.27;;
19816;SDS011;68323;49.394;8.434;2024-03-22T05:05:49;20.63;;;13.07;;
19816;SDS011;68323;49.394;8.434;2024-03-22T05:08:15;20.17;;;13.37;;
19816;SDS011;68323;49.394;8.434;2024-03-22T05:10:42;20.33;;;12.93;;
19816;SDS011;68323;49.394;8.434;2024-03-22T05:13:08;21.13;;;13.63;;
19816;SDS011;68323;49.394;8.434;2024-03-22T05:15:34;20.93;;;13.40;;
19816;SDS011;68323;49.394;8.434;2024-03-22T05:18:00;21.90;;;14.47;;
19816;SDS011;68323;49.394;8.434;2024-03-22T05:20:26;25.43;;;13.83;;
19816;SDS011;68323;49.394;8.434;2024-03-22T05:22:52;22.07;;;13.90;;
19816;SDS011;68323;49.394;8.434;2024-03-22T05:25:18;25.10;;;14.93;;
19816;SDS011;68323;49.394;8.434;2024-03-22T05:27:44;20.87;;;13.47;;
19816;SDS011;68323;49.394;8.434;2024-03-22T05:30:11;22.90;;;14.30;;
19816;SDS011;68323;49.394;8.434;2024-03-22T05:32:38;24.93;;;14.57;;
19816;SDS011;68323;49.394;8.434;2024-03-22T05:35:05;21.10;;;13.97;;
19816;SDS011;68323;49.394;8.434;2024-03-22T05:37:31;22.27;;;14.83;;
19816;SDS011;68323;49.394;8.434;2024-03-22T05:39:58;19.20;;;13.90;;
19816;SDS011;68323;49.394;8.434;2024-03-22T05:42:25;23.10;;;14.57;;
19816;SDS011;68323;49.394;8.434;2024-03-22T05:44:51;22.13;;;14.50;;
19816;SDS011;68323;49.394;8.434;2024-03-22T05:47:17;25.03;;;14.60;;
19816;SDS011;68323;49.394;8.434;2024-03-22T05:49:44;24.57;;;14.77;;
19816;SDS011;68323;49.394;8.434;2024-03-22T05:52:10;23.93;;;14.57;;
19816;SDS011;68323;49.394;8.434;2024-03-22T05:54:37;25.20;;;15.17;;
19816;SDS011;68323;49.394;8.434;2024-03-22T05:57:03;23.73;;;14.67;;
19816;SDS011;68323;49.394;8.434;2024-03-22T05:59:30;20.97;;;14.60;;
19816;SDS011;68323;49.394;8.434;2024-03-22T06:01:56;22.33;;;15.20;;
19816;SDS011;68323;49.394;8.434;2024-03-22T06:04:22;23.67;;;13.47;;
19816;SDS011;68323;49.394;8.434;2024-03-22T06:06:48;20.13;;;13.23;;
19816;SDS011;68323;49.394;8.434;2024-03-22T06:09:14;16.77;;;11.97;;
19816;SDS011;68323;49.394;8.434;2024-03-22T06:11:48;15.77;;;11.70;;
19816;SDS011;68323;49.394;8.434;2024-03-22T06:14:14;15.37;;;11.47;;
19816;SDS011;68323;49.394;8.434;2024-03-22T06:16:40;17.93;;;11.40;;
19816;SDS011;68323;49.394;8.434;2024-03-22T06:19:06;18.43;;;11.73;;
19816;SDS011;68323;49.394;8.434;2024-03-22T06:21:32;15.50;;;11.30;;
19816;SDS011;68323;49.394;8.434;2024-03-22T06:23:58;17.40;;;10.30;;
19816;SDS011;68323;49.394;8.434;2024-03-22T06:26:24;14.90;;;10.67;;
19816;SDS011;68323;49.394;8.434;2024-03-22T06:28:50;17.63;;;9.87;;
19816;SDS011;68323;49.394;8.434;2024-03-22T06:31:16;15.53;;;9.40;;
19816;SDS011;68323;49.394;8.434;2024-03-22T06:33:42;15.60;;;9.83;;
19816;SDS011;68323;49.394;8.434;2024-03-22T06:36:08;13.37;;;8.83;;
19816;SDS011;68323;49.394;8.434;2024-03-22T06:38:34;11.67;;;8.90;;
19816;SDS011;68323;49.394;8.434;2024-03-22T06:41:00;12.37;;;8.90;;
19816;SDS011;68323;49.394;8.434;2024-03-22T06:43:26;13.43;;;9.13;;
19816;SDS011;68323;49.394;8.434;2024-03-22T06:45:52;12.23;;;8.80;;
19816;SDS011;68323;49.394;8.434;2024-03-22T06:48:18;15.33;;;8.80;;
19816;SDS011;68323;49.394;8.434;2024-03-22T06:50:44;12.33;;;8.83;;
19816;SDS011;68323;49.394;8.434;2024-03-22T06:53:10;13.77;;;8.53;;
19816;SDS011;68323;49.394;8.434;2024-03-22T06:55:36;11.90;;;8.43;;
19816;SDS011;68323;49.394;8.434;2024-03-22T06:58:02;13.70;;;8.30;;
19816;SDS011;68323;49.394;8.434;2024-03-22T07:00:28;15.30;;;9.70;;
19816;SDS011;68323;49.394;8.434;2024-03-22T07:02:54;12.60;;;9.47;;
19816;SDS011;68323;49.394;8.434;2024-03-22T07:05:21;14.30;;;9.40;;
19816;SDS011;68323;49.394;8.434;2024-03-22T07:07:47;11.30;;;8.93;;
19816;SDS011;68323;49.394;8.434;2024-03-22T07:10:15;11.07;;;8.23;;
19816;SDS011;68323;49.394;8.434;2024-03-22T07:12:41;13.07;;;9.00;;
19816;SDS011;68323;49.394;8.434;2024-03-22T07:15:07;11.68;;;8.40;;
19816;SDS011;68323;49.394;8.434;2024-03-22T07:17:33;11.68;;;8.57;;
19816;SDS011;68323;49.394;8.434;2024-03-22T07:19:59;11.43;;;8.43;;
19816;SDS011;68323;49.394;8.434;2024-03-22T07:22:25;10.00;;;7.57;;
19816;SDS011;68323;49.394;8.434;2024-03-22T07:24:51;14.27;;;8.15;;
19816;SDS011;68323;49.394;8.434;2024-03-22T07:27:17;13.23;;;8.10;;
19816;SDS011;68323;49.394;8.434;2024-03-22T07:29:44;12.25;;;8.75;;
19816;SDS011;68323;49.394;8.434;2024-03-22T07:32:10;18.05;;;9.38;;
19816;SDS011;68323;49.394;8.434;2024-03-22T07:34:36;14.55;;;9.32;;
19816;SDS011;68323;49.394;8.434;2024-03-22T07:37:02;14.25;;;9.77;;
19816;SDS011;68323;49.394;8.434;2024-03-22T07:39:29;11.63;;;9.77;;
19816;SDS011;68323;49.394;8.434;2024-03-22T07:41:55;12.05;;;9.55;;
19816;SDS011;68323;49.394;8.434;2024-03-22T07:44:21;14.65;;;9.80;;
19816;SDS011;68323;49.394;8.434;2024-03-22T07:46:49;15.13;;;9.57;;
19816;SDS011;68323;49.394;8.434;2024-03-22T07:49:15;15.30;;;9.83;;
19816;SDS011;68323;49.394;8.434;2024-03-22T07:51:41;16.00;;;9.63;;
19816;SDS011;68323;49.394;8.434;2024-03-22T07:54:06;16.50;;;10.10;;
19816;SDS011;68323;49.394;8.434;2024-03-22T07:56:32;15.10;;;10.07;;
19816;SDS011;68323;49.394;8.434;2024-03-22T07:58:58;18.07;;;9.87;;
19816;SDS011;68323;49.394;8.434;2024-03-22T08:01:25;13.63;;;10.10;;
19816;SDS011;68323;49.394;8.434;2024-03-22T08:03:51;15.40;;;10.30;;
19816;SDS011;68323;49.394;8.434;2024-03-22T08:06:17;13.83;;;10.20;;
19816;SDS011;68323;49.394;8.434;2024-03-22T08:08:43;15.73;;;9.80;;
19816;SDS011;68323;49.394;8.434;2024-03-22T08:11:09;17.63;;;9.93;;
19816;SDS011;68323;49.394;8.434;2024-03-22T08:13:35;15.27;;;10.43;;
19816;SDS011;68323;49.394;8.434;2024-03-22T08:16:01;15.77;;;9.87;;
19816;SDS011;68323;49.394;8.434;2024-03-22T08:18:27;12.83;;;10.03;;
19816;SDS011;68323;49.394;8.434;2024-03-22T08:20:54;14.10;;;9.63;;
19816;SDS011;68323;49.394;8.434;2024-03-22T08:23:20;15.13;;;10.20;;
19816;SDS011;68323;49.394;8.434;2024-03-22T08:25:47;13.50;;;9.20;;
19816;SDS011;68323;49.394;8.434;2024-03-22T08:28:13;12.23;;;9.63;;
19816;SDS011;68323;49.394;8.434;2024-03-22T08:30:40;17.03;;;9.67;;
19816;SDS011;68323;49.394;8.434;2024-03-22T08:33:07;15.03;;;9.53;;
19816;SDS011;68323;49.394;8.434;2024-03-22T08:35:33;14.20;;;8.90;;
19816;SDS011;68323;49.394;8.434;2024-03-22T08:37:59;12.23;;;9.07;;
19816;SDS011;68323;49.394;8.434;2024-03-22T08:40:28;17.20;;;9.90;;
19816;SDS011;68323;49.394;8.434;2024-03-22T08:42:56;14.83;;;10.10;;
19816;SDS011;68323;49.394;8.434;2024-03-22T08:45:22;19.50;;;10.67;;
19816;SDS011;68323;49.394;8.434;2024-03-22T08:47:48;13.70;;;10.00;;
19816;SDS011;68323;49.394;8.434;2024-03-22T08:50:17;19.47;;;10.80;;
19816;SDS011;68323;49.394;8.434;2024-03-22T08:52:45;15.07;;;11.33;;
19816;SDS011;68323;49.394;8.434;2024-03-22T08:55:11;18.90;;;11.83;;
19816;SDS011;68323;49.394;8.434;2024-03-22T08:57:38;16.53;;;11.30;;
19816;SDS011;68323;49.394;8.434;2024-03-22T09:00:05;14.33;;;10.10;;
19816;SDS011;68323;49.394;8.434;2024-03-22T09:02:33;17.17;;;10.37;;
19816;SDS011;68323;49.394;8.434;2024-03-22T09:04:59;19.30;;;10.33;;
19816;SDS011;68323;49.394;8.434;2024-03-22T09:07:25;16.20;;;10.27;;
19816;SDS011;68323;49.394;8.434;2024-03-22T09:09:51;16.83;;;10.53;;
19816;SDS011;68323;49.394;8.434;2024-03-22T09:12:18;15.10;;;10.83;;
19816;SDS011;68323;49.394;8.434;2024-03-22T09:14:44;17.40;;;10.43;;
19816;SDS011;68323;49.394;8.434;2024-03-22T09:17:10;14.40;;;9.63;;
19816;SDS011;68323;49.394;8.434;2024-03-22T09:19:38;15.33;;;9.77;;
19816;SDS011;68323;49.394;8.434;2024-03-22T09:22:10;14.60;;;10.17;;
19816;SDS011;68323;49.394;8.434;2024-03-22T09:24:36;17.50;;;9.87;;
19816;SDS011;68323;49.394;8.434;2024-03-22T09:27:02;16.20;;;9.23;;
19816;SDS011;68323;49.394;8.434;2024-03-22T09:29:33;11.97;;;8.70;;
19816;SDS011;68323;49.394;8.434;2024-03-22T09:32:02;12.80;;;8.63;;
19816;SDS011;68323;49.394;8.434;2024-03-22T09:34:28;10.03;;;7.83;;
19816;SDS011;68323;49.394;8.434;2024-03-22T09:36:57;13.87;;;8.20;;
19816;SDS011;68323;49.394;8.434;2024-03-22T09:39:26;13.03;;;7.93;;
19816;SDS011;68323;49.394;8.434;2024-03-22T09:41:53;13.97;;;8.07;;
19816;SDS011;68323;49.394;8.434;2024-03-22T09:44:30;11.53;;;7.97;;
19816;SDS011;68323;49.394;8.434;2024-03-22T09:47:01;11.50;;;7.87;;
19816;SDS011;68323;49.394;8.434;2024-03-22T09:49:27;10.40;;;8.03;;
19816;SDS011;68323;49.394;8.434;2024-03-22T09:52:03;10.67;;;7.77;;
19816;SDS011;68323;49.394;8.434;2024-03-22T09:54:29;13.20;;;7.53;;
19816;SDS011;68323;49.394;8.434;2024-03-22T09:56:56;9.97;;;7.20;;
19816;SDS011;68323;49.394;8.434;2024-03-22T09:59:24;9.10;;;6.47;;
19816;SDS011;68323;49.394;8.434;2024-03-22T10:01:50;11.60;;;7.30;;
19816;SDS011;68323;49.394;8.434;2024-03-22T10:04:18;11.60;;;7.10;;
19816;SDS011;68323;49.394;8.434;2024-03-22T10:06:44;15.47;;;7.03;;
19816;SDS011;68323;49.394;8.434;2024-03-22T10:09:10;7.90;;;5.93;;
19816;SDS011;68323;49.394;8.434;2024-03-22T10:11:39;11.33;;;5.87;;
19816;SDS011;68323;49.394;8.434;2024-03-22T10:14:07;11.90;;;4.87;;
19816;SDS011;68323;49.394;8.434;2024-03-22T10:16:34;9.30;;;4.33;;
19816;SDS011;68323;49.394;8.434;2024-03-22T10:19:21;7.97;;;4.10;;
19816;SDS011;68323;49.394;8.434;2024-03-22T10:22:01;8.33;;;4.20;;
19816;SDS011;68323;49.394;8.434;2024-03-22T10:24:33;9.47;;;4.30;;
19816;SDS011;68323;49.394;8.434;2024-03-22T10:27:04;9.17;;;4.33;;
19816;SDS011;68323;49.394;8.434;2024-03-22T10:29:30;9.63;;;4.73;;
19816;SDS011;68323;49.394;8.434;2024-03-22T10:32:36;15.17;;;5.40;;
19816;SDS011;68323;49.394;8.434;2024-03-22T10:35:15;7.20;;;4.90;;
19816;SDS011;68323;49.394;8.434;2024-03-22T10:37:41;7.43;;;4.60;;
19816;SDS011;68323;49.394;8.434;2024-03-22T10:42:54;7.57;;;5.10;;
19816;SDS011;68323;49.394;8.434;2024-03-22T10:45:22;9.33;;;5.00;;
19816;SDS011;68323;49.394;8.434;2024-03-22T10:47:57;10.40;;;5.10;;
19816;SDS011;68323;49.394;8.434;2024-03-22T10:50:31;7.90;;;4.77;;
19816;SDS011;68323;49.394;8.434;2024-03-22T10:53:09;9.00;;;4.53;;
19816;SDS011;68323;49.394;8.434;2024-03-22T10:55:54;8.40;;;4.57;;
19816;SDS011;68323;49.394;8.434;2024-03-22T10:58:27;6.67;;;4.47;;
19816;SDS011;68323;49.394;8.434;2024-03-22T11:00:55;11.30;;;4.07;;
19816;SDS011;68323;49.394;8.434;2024-03-22T11:03:32;6.33;;;4.13;;
19816;SDS011;68323;49.394;8.434;2024-03-22T11:06:09;9.77;;;4.07;;
19816;SDS011;68323;49.394;8.434;2024-03-22T11:09:02;4.30;;;3.10;;
19816;SDS011;68323;49.394;8.434;2024-03-22T11:11:31;4.97;;;3.10;;
19816;SDS011;68323;49.394;8.434;2024-03-22T11:14:07;6.97;;;3.13;;
19816;SDS011;68323;49.394;8.434;2024-03-22T11:16:54;4.97;;;3.30;;
19816;SDS011;68323;49.394;8.434;2024-03-22T11:19:20;4.57;;;3.50;;
19816;SDS011;68323;49.394;8.434;2024-03-22T11:21:51;4.57;;;3.10;;
19816;SDS011;68323;49.394;8.434;2024-03-22T11:24:37;5.40;;;3.20;;
19816;SDS011;68323;49.394;8.434;2024-03-22T11:27:03;5.37;;;3.70;;
19816;SDS011;68323;49.394;8.434;2024-03-22T11:29:30;4.53;;;2.92;;
19816;SDS011;68323;49.394;8.434;2024-03-22T11:31:56;6.15;;;3.20;;
19816;SDS011;68323;49.394;8.434;2024-03-22T11:34:22;6.40;;;2.90;;
19816;SDS011;68323;49.394;8.434;2024-03-22T11:36:48;5.70;;;2.77;;
19816;SDS011;68323;49.394;8.434;2024-03-22T11:39:23;6.53;;;2.83;;
19816;SDS011;68323;49.394;8.434;2024-03-22T11:41:51;6.50;;;2.87;;
19816;SDS011;68323;49.394;8.434;2024-03-22T11:44:17;5.80;;;2.67;;
19816;SDS011;68323;49.394;8.434;2024-03-22T11:46:44;7.17;;;3.03;;
19816;SDS011;68323;49.394;8.434;2024-03-22T11:49:10;4.78;;;2.28;;
19816;SDS011;68323;49.394;8.434;2024-03-22T11:51:36;6.45;;;2.30;;
19816;SDS011;68323;49.394;8.434;2024-03-22T11:54:02;3.40;;;2.10;;
19816;SDS011;68323;49.394;8.434;2024-03-22T11:56:29;5.93;;;2.42;;
19816;SDS011;68323;49.394;8.434;2024-03-22T11:59:00;4.60;;;2.25;;
19816;SDS011;68323;49.394;8.434;2024-03-22T12:01:28;4.55;;;2.13;;
19816;SDS011;68323;49.394;8.434;2024-03-22T12:03:54;7.40;;;2.00;;
19816;SDS011;68323;49.394;8.434;2024-03-22T12:06:20;3.55;;;2.50;;
19816;SDS011;68323;49.394;8.434;2024-03-22T12:08:46;7.90;;;2.65;;
19816;SDS011;68323;49.394;8.434;2024-03-22T12:11:12;3.70;;;2.35;;
19816;SDS011;68323;49.394;8.434;2024-03-22T12:13:39;5.18;;;2.50;;
19816;SDS011;68323;49.394;8.434;2024-03-22T12:16:05;5.68;;;3.00;;
19816;SDS011;68323;49.394;8.434;2024-03-22T12:18:32;6.00;;;3.40;;
19816;SDS011;68323;49.394;8.434;2024-03-22T12:20:58;5.57;;;2.95;;
19816;SDS011;68323;49.394;8.434;2024-03-22T12:23:24;4.38;;;2.45;;
19816;SDS011;68323;49.394;8.434;2024-03-22T12:25:51;6.05;;;3.03;;
19816;SDS011;68323;49.394;8.434;2024-03-22T12:28:17;7.78;;;3.00;;
19816;SDS011;68323;49.394;8.434;2024-03-22T12:30:43;5.10;;;2.90;;
19816;SDS011;68323;49.394;8.434;2024-03-22T12:33:09;4.25;;;2.97;;
19816;SDS011;68323;49.394;8.434;2024-03-22T12:35:36;5.00;;;2.80;;
19816;SDS011;68323;49.394;8.434;2024-03-22T12:38:02;4.57;;;3.08;;
19816;SDS011;68323;49.394;8.434;2024-03-22T12:40:29;7.88;;;3.70;;
19816;SDS011;68323;49.394;8.434;2024-03-22T12:42:55;6.55;;;3.45;;
19816;SDS011;68323;49.394;8.434;2024-03-22T12:45:21;7.65;;;3.70;;
19816;SDS011;68323;49.394;8.434;2024-03-22T12:47:47;24.83;;;4.32;;
19816;SDS011;68323;49.394;8.434;2024-03-22T12:50:13;5.88;;;4.13;;
19816;SDS011;68323;49.394;8.434;2024-03-22T12:52:40;9.05;;;4.30;;
19816;SDS011;68323;49.394;8.434;2024-03-22T12:55:06;7.00;;;3.95;;
19816;SDS011;68323;49.394;8.434;2024-03-22T12:57:32;9.00;;;3.88;;
19816;SDS011;68323;49.394;8.434;2024-03-22T12:59:58;6.97;;;3.97;;
19816;SDS011;68323;49.394;8.434;2024-03-22T13:02:24;7.95;;;4.22;;
19816;SDS011;68323;49.394;8.434;2024-03-22T13:04:51;6.38;;;3.70;;
19816;SDS011;68323;49.394;8.434;2024-03-22T13:07:18;6.45;;;4.05;;
19816;SDS011;68323;49.394;8.434;2024-03-22T13:09:44;7.05;;;3.40;;
19816;SDS011;68323;49.394;8.434;2024-03-22T13:12:11;14.88;;;4.93;;
19816;SDS011;68323;49.394;8.434;2024-03-22T13:14:37;9.85;;;4.22;;
19816;SDS011;68323;49.394;8.434;2024-03-22T13:17:03;7.80;;;4.00;;
19816;SDS011;68323;49.394;8.434;2024-03-22T13:19:29;8.65;;;4.20;;
19816;SDS011;68323;49.394;8.434;2024-03-22T13:21:55;6.45;;;3.83;;
19816;SDS011;68323;49.394;8.434;2024-03-22T13:24:21;7.57;;;4.32;;
19816;SDS011;68323;49.394;8.434;2024-03-22T13:26:47;6.82;;;3.78;;
19816;SDS011;68323;49.394;8.434;2024-03-22T13:29:13;5.28;;;3.30;;
19816;SDS011;68323;49.394;8.434;2024-03-22T13:31:39;9.40;;;3.92;;
19816;SDS011;68323;49.394;8.434;2024-03-22T13:34:05;10.18;;;3.63;;
19816;SDS011;68323;49.394;8.434;2024-03-22T13:36:31;8.02;;;3.60;;
19816;SDS011;68323;49.394;8.434;2024-03-22T13:38:58;9.18;;;4.20;;
19816;SDS011;68323;49.394;8.434;2024-03-22T13:41:24;7.35;;;3.65;;
19816;SDS011;68323;49.394;8.434;2024-03-22T13:43:50;9.13;;;3.78;;
19816;SDS011;68323;49.394;8.434;2024-03-22T13:46:16;7.78;;;4.07;;
19816;SDS011;68323;49.394;8.434;2024-03-22T13:48:42;9.52;;;4.10;;
19816;SDS011;68323;49.394;8.434;2024-03-22T13:51:08;8.90;;;4.13;;
19816;SDS011;68323;49.394;8.434;2024-03-22T13:53:35;7.38;;;4.10;;
19816;SDS011;68323;49.394;8.434;2024-03-22T13:56:02;8.85;;;4.10;;
19816;SDS011;68323;49.394;8.434;2024-03-22T13:58:28;9.07;;;4.22;;
19816;SDS011;68323;49.394;8.434;2024-03-22T14:00:54;6.68;;;4.28;;
19816;SDS011;68323;49.394;8.434;2024-03-22T14:03:20;7.50;;;4.28;;
19816;SDS011;68323;49.394;8.434;2024-03-22T14:05:46;7.43;;;3.92;;
19816;SDS011;68323;49.394;8.434;2024-03-22T14:08:12;6.88;;;4.22;;
19816;SDS011;68323;49.394;8.434;2024-03-22T14:10:38;6.70;;;4.22;;
19816;SDS011;68323;49.394;8.434;2024-03-22T14:13:04;6.97;;;4.50;;
19816;SDS011;68323;49.394;8.434;2024-03-22T14:15:32;5.78;;;4.40;;
19816;SDS011;68323;49.394;8.434;2024-03-22T14:18:00;10.43;;;4.47;;
19816;SDS011;68323;49.394;8.434;2024-03-22T14:20:26;8.43;;;4.25;;
19816;SDS011;68323;49.394;8.434;2024-03-22T14:22:52;9.15;;;4.20;;
19816;SDS011;68323;49.394;8.434;2024-03-22T14:25:18;6.53;;;3.40;;
19816;SDS011;68323;49.394;8.434;2024-03-22T14:27:45;7.13;;;3.97;;
19816;SDS011;68323;49.394;8.434;2024-03-22T14:30:12;5.38;;;3.90;;
19816;SDS011;68323;49.394;8.434;2024-03-22T14:32:39;5.70;;;3.78;;
19816;SDS011;68323;49.394;8.434;2024-03-22T14:35:05;7.45;;;4.13;;